createdAt,value
2017-03-11T00:00:36.701Z,39.57
2017-03-11T00:01:36.732Z,39.47
2017-03-11T00:02:36.747Z,39.66
2017-03-11T00:03:36.777Z,39.57
2017-03-11T00:04:36.813Z,39.18
2017-03-11T00:05:36.833Z,39.57
2017-03-11T00:06:36.890Z,39.28
2017-03-11T00:07:36.889Z,39.37
2017-03-11T00:08:36.521Z,39.57
2017-03-11T00:09:36.941Z,39.57
2017-03-11T00:10:36.573Z,39.57
2017-03-11T00:11:36.594Z,39.66
2017-03-11T00:12:37.035Z,39.57
2017-03-11T00:13:37.063Z,39.57
2017-03-11T00:14:37.084Z,39.57
2017-03-11T00:15:37.117Z,39.18
2017-03-11T00:16:36.737Z,39.45
2017-03-11T00:17:36.766Z,39.37
2017-03-11T00:18:37.191Z,39.66
2017-03-11T00:19:37.220Z,39.66
2017-03-11T00:20:37.249Z,39.66
2017-03-11T00:21:37.277Z,39.66
2017-03-11T00:22:36.901Z,39.66
2017-03-11T00:23:36.930Z,39.94
2017-03-11T00:24:36.956Z,39.84
2017-03-11T00:25:37.401Z,40.12
2017-03-11T00:26:37.012Z,39.94
2017-03-11T00:27:37.041Z,40.03
2017-03-11T00:28:37.483Z,39.94
2017-03-11T00:29:37.491Z,40.12
2017-03-11T00:30:37.521Z,40.22
2017-03-11T00:31:37.157Z,40.03
2017-03-11T00:32:37.581Z,40.22
2017-03-11T00:33:37.197Z,39.84
2017-03-11T00:34:37.631Z,39.84
2017-03-11T00:35:37.260Z,39.84
2017-03-11T00:36:37.288Z,39.94
2017-03-11T00:37:37.322Z,40.03
2017-03-11T00:38:37.340Z,40.12
2017-03-11T00:39:37.370Z,40.03
2017-03-11T00:40:37.405Z,39.94
2017-03-11T00:41:37.428Z,39.94
2017-03-11T00:42:37.853Z,39.94
2017-03-11T00:43:37.486Z,40.03
2017-03-11T00:44:37.911Z,40.12
2017-03-11T00:45:37.923Z,40.03
2017-03-11T00:46:37.960Z,39.94
2017-03-11T00:47:37.592Z,39.94
2017-03-11T00:48:37.617Z,39.94
2017-03-11T00:49:38.078Z,40.03
2017-03-11T00:50:38.075Z,40.03
2017-03-11T00:51:38.116Z,39.94
2017-03-11T00:52:37.728Z,39.94
2017-03-11T00:53:37.753Z,39.64
2017-03-11T00:54:38.182Z,40.12
2017-03-11T00:55:38.214Z,40.03
2017-03-11T00:56:38.235Z,39.64
2017-03-11T00:57:38.269Z,39.64
2017-03-11T00:58:38.289Z,39.74
2017-03-11T00:59:38.322Z,39.74
2017-03-11T01:00:38.355Z,39.74
2017-03-11T01:01:37.975Z,39.82
2017-03-11T01:02:37.999Z,39.64
2017-03-11T01:03:38.040Z,39.74
2017-03-11T01:04:38.482Z,39.74
2017-03-11T01:05:38.486Z,39.72
2017-03-11T01:06:38.515Z,39.94
2017-03-11T01:07:38.540Z,39.82
2017-03-11T01:08:38.577Z,39.72
2017-03-11T01:09:38.625Z,39.72
2017-03-11T01:10:38.626Z,39.72
2017-03-11T01:11:38.652Z,39.72
2017-03-11T01:12:38.692Z,39.72
2017-03-11T01:13:38.700Z,39.72
2017-03-11T01:14:38.741Z,39.72
2017-03-11T01:15:38.773Z,39.94
2017-03-11T01:16:38.390Z,39.62
2017-03-11T01:17:38.415Z,39.62
2017-03-11T01:18:38.844Z,39.62
2017-03-11T01:19:39.120Z,39.72
2017-03-11T01:20:38.499Z,40.01
2017-03-11T01:21:38.930Z,39.72
2017-03-11T01:22:38.951Z,39.72
2017-03-11T01:23:38.988Z,39.82
2017-03-11T01:24:38.869Z,39.72
2017-03-11T01:25:39.057Z,39.72
2017-03-11T01:26:39.062Z,39.82
2017-03-11T01:27:38.685Z,39.72
2017-03-11T01:28:39.115Z,39.72
2017-03-11T01:29:39.408Z,39.82
2017-03-11T01:30:38.764Z,39.62
2017-03-11T01:31:39.198Z,39.82
2017-03-11T01:32:39.232Z,39.62
2017-03-11T01:33:39.255Z,39.82
2017-03-11T01:34:39.527Z,39.82
2017-03-11T01:35:38.909Z,39.62
2017-03-11T01:36:39.333Z,39.62
2017-03-11T01:37:38.955Z,39.62
2017-03-11T01:38:39.382Z,39.82
2017-03-11T01:39:39.276Z,39.91
2017-03-11T01:40:39.441Z,39.82
2017-03-11T01:41:39.469Z,39.91
2017-03-11T01:42:39.498Z,39.62
2017-03-11T01:43:39.526Z,39.91
2017-03-11T01:44:39.807Z,39.43
2017-03-11T01:45:39.579Z,39.91
2017-03-11T01:46:39.605Z,39.62
2017-03-11T01:47:39.642Z,40.01
2017-03-11T01:48:39.659Z,39.62
2017-03-11T01:49:39.539Z,39.82
2017-03-11T01:50:39.715Z,39.62
2017-03-11T01:51:39.345Z,39.43
2017-03-11T01:52:39.766Z,39.82
2017-03-11T01:53:39.398Z,39.82
2017-03-11T01:54:40.067Z,39.62
2017-03-11T01:55:39.851Z,39.82
2017-03-11T01:56:39.877Z,39.43
2017-03-11T01:57:39.917Z,39.72
2017-03-11T01:58:39.934Z,39.53
2017-03-11T01:59:40.211Z,39.82
2017-03-11T02:00:40.011Z,39.91
2017-03-11T02:01:40.019Z,39.82
2017-03-11T02:02:40.040Z,39.72
2017-03-11T02:03:39.665Z,39.62
2017-03-11T02:04:40.343Z,39.82
2017-03-11T02:05:40.123Z,40.2
2017-03-11T02:06:39.744Z,39.82
2017-03-11T02:07:39.777Z,39.62
2017-03-11T02:08:40.202Z,39.72
2017-03-11T02:09:40.490Z,39.43
2017-03-11T02:10:40.259Z,39.72
2017-03-11T02:11:39.884Z,39.72
2017-03-11T02:12:40.312Z,39.72
2017-03-11T02:13:40.341Z,39.82
2017-03-11T02:14:40.218Z,39.91
2017-03-11T02:15:40.035Z,39.34
2017-03-11T02:16:40.039Z,39.62
2017-03-11T02:17:40.060Z,39.99
2017-03-11T02:18:40.086Z,40.2
2017-03-11T02:19:40.354Z,40.01
2017-03-11T02:20:40.131Z,39.72
2017-03-11T02:21:40.556Z,40.3
2017-03-11T02:22:40.584Z,40.2
2017-03-11T02:23:40.617Z,39.82
2017-03-11T02:24:40.897Z,40.01
2017-03-11T02:25:40.674Z,40.01
2017-03-11T02:26:40.287Z,40.19
2017-03-11T02:27:40.727Z,40.3
2017-03-11T02:28:40.340Z,39.99
2017-03-11T02:29:40.773Z,40.19
2017-03-11T02:30:40.818Z,40.3
2017-03-11T02:31:40.838Z,40.2
2017-03-11T02:32:40.865Z,39.79
2017-03-11T02:33:40.885Z,40.11
2017-03-11T02:34:40.918Z,40.09
2017-03-11T02:35:40.954Z,40.28
2017-03-11T02:36:40.958Z,40.28
2017-03-11T02:37:40.987Z,39.7
2017-03-11T02:38:41.019Z,39.79
2017-03-11T02:39:41.048Z,40.37
2017-03-11T02:40:41.083Z,40.19
2017-03-11T02:41:41.098Z,39.99
2017-03-11T02:42:41.125Z,39.99
2017-03-11T02:43:40.752Z,40.28
2017-03-11T02:44:40.780Z,39.89
2017-03-11T02:45:41.206Z,39.79
2017-03-11T02:46:41.265Z,39.89
2017-03-11T02:47:41.262Z,40.37
2017-03-11T02:48:41.296Z,40.19
2017-03-11T02:49:40.919Z,39.89
2017-03-11T02:50:40.941Z,39.79
2017-03-11T02:51:40.969Z,39.99
2017-03-11T02:52:41.387Z,40.09
2017-03-11T02:53:41.423Z,39.89
2017-03-11T02:54:41.448Z,39.99
2017-03-11T02:55:41.077Z,40.09
2017-03-11T02:56:41.102Z,39.99
2017-03-11T02:57:41.538Z,40.09
2017-03-11T02:58:41.559Z,40.09
2017-03-11T02:59:41.596Z,39.99
2017-03-11T03:00:41.612Z,40.09
2017-03-11T03:01:41.637Z,40.09
2017-03-11T03:02:41.661Z,40.09
2017-03-11T03:03:41.290Z,40.09
2017-03-11T03:04:41.315Z,39.99
2017-03-11T03:05:41.744Z,40.09
2017-03-11T03:06:41.785Z,39.99
2017-03-11T03:07:41.803Z,39.99
2017-03-11T03:08:41.831Z,39.99
2017-03-11T03:09:41.856Z,40.09
2017-03-11T03:10:41.893Z,39.99
2017-03-11T03:11:41.906Z,39.99
2017-03-11T03:12:41.933Z,39.99
2017-03-11T03:13:41.566Z,39.99
2017-03-11T03:14:41.591Z,39.99
2017-03-11T03:15:42.007Z,40.09
2017-03-11T03:16:42.088Z,40.09
2017-03-11T03:17:42.072Z,40.09
2017-03-11T03:18:41.697Z,39.89
2017-03-11T03:19:42.123Z,40.09
2017-03-11T03:20:41.751Z,40.09
2017-03-11T03:21:42.180Z,40.28
2017-03-11T03:22:42.210Z,40.19
2017-03-11T03:23:41.825Z,39.99
2017-03-11T03:24:41.862Z,40.19
2017-03-11T03:25:42.535Z,40.28
2017-03-11T03:26:41.925Z,40.57
2017-03-11T03:27:41.937Z,40.47
2017-03-11T03:28:41.957Z,40.47
2017-03-11T03:29:41.995Z,40.57
2017-03-11T03:30:42.678Z,40.66
2017-03-11T03:31:42.451Z,40.76
2017-03-11T03:32:42.481Z,40.47
2017-03-11T03:33:42.505Z,40.66
2017-03-11T03:34:42.125Z,40.47
2017-03-11T03:35:42.807Z,40.66
2017-03-11T03:36:42.579Z,40.57
2017-03-11T03:37:42.609Z,40.37
2017-03-11T03:38:42.233Z,40.47
2017-03-11T03:39:42.669Z,40.57
2017-03-11T03:40:42.942Z,40.57
2017-03-11T03:41:42.711Z,40.47
2017-03-11T03:42:42.740Z,40.66
2017-03-11T03:43:42.372Z,40.47
2017-03-11T03:44:42.789Z,39.89
2017-03-11T03:45:42.422Z,39.89
2017-03-11T03:46:42.451Z,40.57
2017-03-11T03:47:42.871Z,40.47
2017-03-11T03:48:42.504Z,39.89
2017-03-11T03:49:42.929Z,39.99
2017-03-11T03:50:42.569Z,39.89
2017-03-11T03:51:42.983Z,39.99
2017-03-11T03:52:43.016Z,40.28
2017-03-11T03:53:42.632Z,40.19
2017-03-11T03:54:43.065Z,40.19
2017-03-11T03:55:43.097Z,40.37
2017-03-11T03:56:42.710Z,40.37
2017-03-11T03:57:43.159Z,40.19
2017-03-11T03:58:42.774Z,40.19
2017-03-11T03:59:43.193Z,40.37
2017-03-11T04:00:43.226Z,40.19
2017-03-11T04:01:42.870Z,40.28
2017-03-11T04:02:42.910Z,40.19
2017-03-11T04:03:42.908Z,40.09
2017-03-11T04:04:43.336Z,39.89
2017-03-11T04:05:43.353Z,40.19
2017-03-11T04:06:43.420Z,40.19
2017-03-11T04:07:43.415Z,40.28
2017-03-11T04:08:43.039Z,40.09
2017-03-11T04:09:43.069Z,40.28
2017-03-11T04:10:43.093Z,40.37
2017-03-11T04:11:43.521Z,40.19
2017-03-11T04:12:43.554Z,40.37
2017-03-11T04:13:43.207Z,40.28
2017-03-11T04:14:43.202Z,40.09
2017-03-11T04:15:43.229Z,40.28
2017-03-11T04:16:43.257Z,40.37
2017-03-11T04:17:43.695Z,40.09
2017-03-11T04:18:43.721Z,40.09
2017-03-11T04:19:43.336Z,40.09
2017-03-11T04:20:43.757Z,39.99
2017-03-11T04:21:43.805Z,40.09
2017-03-11T04:22:43.418Z,39.97
2017-03-11T04:23:43.448Z,40.19
2017-03-11T04:24:43.882Z,39.97
2017-03-11T04:25:43.905Z,40.16
2017-03-11T04:26:43.925Z,39.99
2017-03-11T04:27:43.957Z,39.99
2017-03-11T04:28:43.578Z,40.19
2017-03-11T04:29:44.003Z,39.97
2017-03-11T04:30:43.637Z,40.19
2017-03-11T04:31:44.309Z,39.97
2017-03-11T04:32:43.697Z,40.07
2017-03-11T04:33:44.106Z,40.07
2017-03-11T04:34:44.135Z,39.99
2017-03-11T04:35:43.764Z,40.07
2017-03-11T04:36:44.440Z,39.99
2017-03-11T04:37:43.822Z,40.07
2017-03-11T04:38:43.854Z,40.07
2017-03-11T04:39:44.274Z,40.09
2017-03-11T04:40:44.299Z,40.09
2017-03-11T04:41:44.572Z,39.87
2017-03-11T04:42:43.953Z,39.97
2017-03-11T04:43:43.976Z,40.07
2017-03-11T04:44:44.402Z,39.97
2017-03-11T04:45:44.430Z,40.07
2017-03-11T04:46:44.707Z,39.97
2017-03-11T04:47:44.481Z,39.87
2017-03-11T04:48:44.114Z,39.99
2017-03-11T04:49:44.138Z,39.78
2017-03-11T04:50:44.564Z,39.78
2017-03-11T04:51:44.439Z,39.97
2017-03-11T04:52:44.220Z,39.87
2017-03-11T04:53:44.649Z,39.87
2017-03-11T04:54:44.277Z,39.97
2017-03-11T04:55:44.702Z,39.78
2017-03-11T04:56:44.578Z,39.79
2017-03-11T04:57:44.753Z,39.87
2017-03-11T04:58:44.781Z,39.87
2017-03-11T04:59:44.410Z,39.79
2017-03-11T05:00:44.834Z,40.07
2017-03-11T05:01:44.723Z,39.97
2017-03-11T05:02:44.896Z,40.07
2017-03-11T05:03:44.516Z,39.97
2017-03-11T05:04:44.545Z,39.79
2017-03-11T05:05:44.574Z,39.97
2017-03-11T05:06:45.250Z,39.97
2017-03-11T05:07:44.632Z,40.07
2017-03-11T05:08:45.048Z,40.07
2017-03-11T05:09:45.068Z,39.97
2017-03-11T05:10:45.102Z,40.07
2017-03-11T05:11:45.386Z,39.78
2017-03-11T05:12:45.167Z,40.26
2017-03-11T05:13:45.184Z,40.07
2017-03-11T05:14:44.812Z,39.78
2017-03-11T05:15:44.844Z,40.07
2017-03-11T05:16:45.525Z,39.87
2017-03-11T05:17:44.895Z,40.07
2017-03-11T05:18:45.315Z,40.16
2017-03-11T05:19:45.341Z,40.16
2017-03-11T05:20:45.368Z,40.26
2017-03-11T05:21:45.109Z,40.16
2017-03-11T05:22:45.434Z,40.07
2017-03-11T05:23:45.048Z,39.97
2017-03-11T05:24:45.472Z,40.19
2017-03-11T05:25:45.509Z,40.19
2017-03-11T05:26:45.381Z,39.97
2017-03-11T05:27:45.555Z,40.07
2017-03-11T05:28:45.575Z,39.87
2017-03-11T05:29:45.204Z,39.99
2017-03-11T05:30:45.649Z,39.99
2017-03-11T05:31:45.509Z,40.07
2017-03-11T05:32:45.292Z,40.09
2017-03-11T05:33:45.707Z,39.99
2017-03-11T05:34:45.747Z,39.99
2017-03-11T05:35:45.764Z,40.28
2017-03-11T05:36:45.649Z,40.07
2017-03-11T05:37:45.421Z,40.09
2017-03-11T05:38:45.850Z,40.09
2017-03-11T05:39:45.877Z,39.89
2017-03-11T05:40:45.899Z,39.99
2017-03-11T05:41:46.180Z,40.09
2017-03-11T05:42:45.954Z,39.89
2017-03-11T05:43:45.987Z,39.79
2017-03-11T05:44:45.611Z,39.79
2017-03-11T05:45:46.040Z,39.99
2017-03-11T05:46:46.316Z,39.99
2017-03-11T05:47:46.092Z,39.79
2017-03-11T05:48:46.118Z,39.61
2017-03-11T05:49:45.746Z,39.7
2017-03-11T05:50:45.783Z,39.79
2017-03-11T05:51:46.448Z,39.61
2017-03-11T05:52:45.826Z,39.61
2017-03-11T05:53:46.261Z,39.79
2017-03-11T05:54:45.911Z,39.61
2017-03-11T05:55:46.307Z,39.99
2017-03-11T05:56:46.592Z,39.89
2017-03-11T05:57:46.361Z,39.89
2017-03-11T05:58:46.381Z,39.91
2017-03-11T05:59:46.006Z,39.89
2017-03-11T06:00:46.439Z,40.09
2017-03-11T06:01:46.319Z,39.82
2017-03-11T06:02:46.097Z,39.82
2017-03-11T06:03:46.529Z,39.72
2017-03-11T06:04:46.554Z,40.01
2017-03-11T06:05:46.190Z,39.91
2017-03-11T06:06:46.863Z,39.72
2017-03-11T06:07:46.657Z,39.62
2017-03-11T06:08:46.661Z,39.14
2017-03-11T06:09:46.290Z,39.14
2017-03-11T06:10:46.694Z,39.53
2017-03-11T06:11:47.007Z,39.24
2017-03-11T06:12:46.763Z,39.24
2017-03-11T06:13:46.788Z,39.34
2017-03-11T06:14:47.049Z,39.53
2017-03-11T06:15:46.837Z,39.43
2017-03-11T06:16:46.867Z,39.53
2017-03-11T06:17:46.900Z,39.54
2017-03-11T06:18:46.516Z,39.24
2017-03-11T06:19:46.545Z,39.34
2017-03-11T06:20:46.987Z,39.34
2017-03-11T06:21:47.003Z,39.34
2017-03-11T06:22:47.052Z,39.53
2017-03-11T06:23:46.652Z,39.43
2017-03-11T06:24:47.086Z,38.97
2017-03-11T06:25:47.120Z,38.97
2017-03-11T06:26:47.139Z,39.26
2017-03-11T06:27:47.162Z,39.06
2017-03-11T06:28:46.816Z,38.78
2017-03-11T06:29:46.820Z,38.97
2017-03-11T06:30:47.247Z,39.06
2017-03-11T06:31:47.285Z,38.87
2017-03-11T06:32:47.308Z,38.68
2017-03-11T06:33:47.332Z,39.26
2017-03-11T06:34:46.965Z,38.78
2017-03-11T06:35:47.378Z,38.78
2017-03-11T06:36:47.412Z,38.97
2017-03-11T06:37:47.050Z,38.78
2017-03-11T06:38:47.463Z,38.87
2017-03-11T06:39:47.500Z,38.97
2017-03-11T06:40:47.517Z,38.97
2017-03-11T06:41:47.533Z,38.97
2017-03-11T06:42:47.602Z,38.87
2017-03-11T06:43:47.195Z,39.06
2017-03-11T06:44:47.229Z,38.97
2017-03-11T06:45:47.657Z,39.16
2017-03-11T06:46:47.673Z,38.97
2017-03-11T06:47:47.710Z,38.97
2017-03-11T06:48:47.731Z,39.16
2017-03-11T06:49:47.759Z,38.68
2017-03-11T06:50:47.385Z,39.06
2017-03-11T06:51:47.806Z,38.89
2017-03-11T06:52:47.842Z,38.99
2017-03-11T06:53:47.879Z,39.18
2017-03-11T06:54:47.896Z,38.99
2017-03-11T06:55:47.928Z,38.97
2017-03-11T06:56:47.548Z,38.79
2017-03-11T06:57:47.990Z,38.58
2017-03-11T06:58:48.014Z,38.58
2017-03-11T06:59:47.628Z,38.58
2017-03-11T07:00:48.064Z,38.51
2017-03-11T07:01:48.097Z,38.49
2017-03-11T07:02:47.714Z,38.79
2017-03-11T07:03:47.746Z,38.6
2017-03-11T07:04:48.167Z,38.51
2017-03-11T07:05:48.196Z,38.7
2017-03-11T07:06:48.218Z,38.7
2017-03-11T07:07:48.249Z,38.99
2017-03-11T07:08:47.882Z,38.79
2017-03-11T07:09:48.327Z,38.7
2017-03-11T07:10:47.931Z,39.47
2017-03-11T07:11:48.356Z,38.79
2017-03-11T07:12:48.385Z,38.89
2017-03-11T07:13:48.030Z,38.41
2017-03-11T07:14:48.439Z,37.63
2017-03-11T07:15:48.468Z,37.37
2017-03-11T07:16:48.527Z,36.32
2017-03-11T07:17:48.121Z,36.16
2017-03-11T07:18:48.547Z,35.02
2017-03-11T07:19:48.179Z,34.25
2017-03-11T07:20:48.199Z,33.89
2017-03-11T07:21:48.241Z,32.94
2017-03-11T07:22:48.659Z,32.46
2017-03-11T07:23:48.684Z,31.89
2017-03-11T07:24:48.725Z,31.52
2017-03-11T07:25:48.754Z,31.23
2017-03-11T07:26:48.766Z,30.76
2017-03-11T07:27:48.400Z,30.77
2017-03-11T07:28:48.832Z,29.62
2017-03-11T07:29:48.453Z,29.24
2017-03-11T07:30:48.885Z,29.52
2017-03-11T07:31:48.911Z,28.66
2017-03-11T07:32:48.942Z,28.38
2017-03-11T07:33:48.571Z,28.49
2017-03-11T07:34:49.001Z,28.39
2017-03-11T07:35:49.041Z,28.49
2017-03-11T07:36:49.053Z,28.02
2017-03-11T07:37:49.089Z,28.02
2017-03-11T07:38:49.131Z,28.78
2017-03-11T07:39:48.743Z,28.38
2017-03-11T07:40:48.768Z,29.33
2017-03-11T07:41:49.205Z,29.24
2017-03-11T07:42:48.837Z,29.8
2017-03-11T07:43:49.496Z,30.18
2017-03-11T07:44:49.299Z,30.35
2017-03-11T07:45:49.315Z,30.65
2017-03-11T07:46:48.957Z,30.73
2017-03-11T07:47:49.370Z,31.12
2017-03-11T07:48:49.418Z,31.21
2017-03-11T07:49:49.431Z,31.5
2017-03-11T07:50:49.455Z,32.07
2017-03-11T07:51:49.487Z,32.17
2017-03-11T07:52:49.512Z,32.46
2017-03-11T07:53:49.146Z,32.44
2017-03-11T07:54:49.175Z,32.64
2017-03-11T07:55:49.600Z,33.12
2017-03-11T07:56:49.644Z,32.64
2017-03-11T07:57:49.913Z,32.92
2017-03-11T07:58:49.689Z,32.82
2017-03-11T07:59:49.318Z,33.1
2017-03-11T08:00:49.768Z,33.2
2017-03-11T08:01:49.780Z,32.71
2017-03-11T08:02:50.072Z,32.81
2017-03-11T08:03:49.845Z,32.99
2017-03-11T08:04:49.474Z,33.18
2017-03-11T08:05:49.895Z,33.09
2017-03-11T08:06:49.520Z,33.37
2017-03-11T08:07:49.676Z,32.99
2017-03-11T08:08:49.969Z,33.47
2017-03-11T08:09:49.598Z,33.76
2017-03-11T08:10:49.641Z,33.76
2017-03-11T08:11:49.668Z,34.15
2017-03-11T08:12:50.188Z,33.94
2017-03-11T08:13:50.117Z,34.04
2017-03-11T08:14:50.137Z,34.33
2017-03-11T08:15:50.177Z,34.33
2017-03-11T08:16:49.811Z,34.04
2017-03-11T08:17:50.076Z,34.42
2017-03-11T08:18:50.256Z,34.71
2017-03-11T08:19:50.289Z,34.81
2017-03-11T08:20:50.326Z,34.81
2017-03-11T08:21:50.343Z,34.91
2017-03-11T08:22:50.608Z,35.29
2017-03-11T08:23:50.383Z,35.28
2017-03-11T08:24:50.410Z,34.99
2017-03-11T08:25:50.441Z,34.99
2017-03-11T08:26:50.462Z,35.18
2017-03-11T08:27:50.347Z,34.99
2017-03-11T08:28:50.519Z,34.99
2017-03-11T08:29:50.161Z,34.99
2017-03-11T08:30:50.577Z,35.08
2017-03-11T08:31:50.593Z,35.08
2017-03-11T08:32:50.490Z,35.18
2017-03-11T08:33:50.276Z,34.99
2017-03-11T08:34:50.690Z,35.47
2017-03-11T08:35:50.730Z,35.28
2017-03-11T08:36:50.749Z,35.47
2017-03-11T08:37:50.627Z,35.37
2017-03-11T08:38:50.403Z,35.66
2017-03-11T08:39:50.421Z,35.86
2017-03-11T08:40:50.461Z,35.86
2017-03-11T08:41:50.882Z,35.37
2017-03-11T08:42:50.770Z,35.86
2017-03-11T08:43:50.936Z,35.86
2017-03-11T08:44:50.965Z,35.28
2017-03-11T08:45:50.998Z,35.95
2017-03-11T08:46:50.629Z,35.66
2017-03-11T08:47:50.755Z,35.66
2017-03-11T08:48:51.075Z,35.47
2017-03-11T08:49:51.108Z,35.66
2017-03-11T08:50:54.384Z,35.66
2017-03-11T08:51:50.764Z,35.66
2017-03-11T08:52:50.971Z,35.76
2017-03-11T08:53:51.219Z,35.37
2017-03-11T08:54:51.266Z,34.6
2017-03-11T08:55:50.881Z,35.1
2017-03-11T08:56:50.926Z,34.44
2017-03-11T08:57:51.205Z,34.15
2017-03-11T08:58:51.355Z,33.97
2017-03-11T08:59:50.991Z,33.7
2017-03-11T09:00:51.434Z,33.31
2017-03-11T09:01:51.445Z,32.92
2017-03-11T09:02:51.334Z,32.56
2017-03-11T09:03:51.495Z,32.57
2017-03-11T09:04:51.131Z,32.18
2017-03-11T09:05:51.560Z,32.09
2017-03-11T09:06:51.188Z,32.1
2017-03-11T09:07:52.088Z,31.52
2017-03-11T09:08:51.241Z,31.32
2017-03-11T09:09:51.275Z,31.32
2017-03-11T09:10:51.700Z,31.13
2017-03-11T09:11:51.733Z,31.13
2017-03-11T09:12:51.625Z,31.32
2017-03-11T09:13:51.792Z,32
2017-03-11T09:14:51.423Z,32.37
2017-03-11T09:15:51.844Z,32.37
2017-03-11T09:16:51.473Z,32.75
2017-03-11T09:17:51.751Z,32.46
2017-03-11T09:18:51.929Z,33.22
2017-03-11T09:19:51.958Z,33.22
2017-03-11T09:20:51.983Z,32.54
2017-03-11T09:21:52.012Z,32.24
2017-03-11T09:22:51.896Z,32.34
2017-03-11T09:23:52.069Z,32.33
2017-03-11T09:24:51.694Z,32.14
2017-03-11T09:25:52.123Z,30.98
2017-03-11T09:26:51.756Z,30.49
2017-03-11T09:27:52.428Z,30.68
2017-03-11T09:28:52.213Z,29.99
2017-03-11T09:29:52.250Z,30.66
2017-03-11T09:30:51.887Z,30.38
2017-03-11T09:31:52.300Z,30.18
2017-03-11T09:32:51.929Z,30.08
2017-03-11T09:33:52.369Z,31.15
2017-03-11T09:34:51.994Z,31.44
2017-03-11T09:35:52.407Z,30.55
2017-03-11T09:36:52.440Z,30.75
2017-03-11T09:37:52.460Z,31.43
2017-03-11T09:38:52.718Z,32.1
2017-03-11T09:39:52.535Z,32.49
2017-03-11T09:40:52.558Z,31.23
2017-03-11T09:41:52.578Z,33.07
2017-03-11T09:42:52.607Z,32.49
2017-03-11T09:43:52.647Z,32.38
2017-03-11T09:44:52.677Z,32.78
2017-03-11T09:45:52.302Z,32.38
2017-03-11T09:46:52.355Z,33.15
2017-03-11T09:47:52.364Z,32.96
2017-03-11T09:48:52.394Z,31.04
2017-03-11T09:49:52.796Z,30.73
2017-03-11T09:50:52.834Z,31.12
2017-03-11T09:51:52.862Z,31.02
2017-03-11T09:52:52.891Z,32.28
2017-03-11T09:53:52.528Z,32.28
2017-03-11T09:54:52.948Z,32.86
2017-03-11T09:55:52.973Z,32.57
2017-03-11T09:56:53.012Z,32.86
2017-03-11T09:57:52.635Z,33.34
2017-03-11T09:58:52.660Z,32.76
2017-03-11T09:59:52.689Z,32.38
2017-03-11T10:00:53.122Z,32.67
2017-03-11T10:01:53.150Z,33.15
2017-03-11T10:02:52.776Z,33.25
2017-03-11T10:03:53.056Z,32.97
2017-03-11T10:04:52.828Z,33.65
2017-03-11T10:05:52.865Z,33.55
2017-03-11T10:06:52.878Z,33.07
2017-03-11T10:07:53.323Z,33.17
2017-03-11T10:08:53.587Z,33.17
2017-03-11T10:09:53.373Z,33.55
2017-03-11T10:10:53.393Z,33.36
2017-03-11T10:11:53.018Z,33.84
2017-03-11T10:12:53.459Z,32.68
2017-03-11T10:13:53.199Z,31.25
2017-03-11T10:14:53.504Z,32.1
2017-03-11T10:15:53.532Z,31.44
2017-03-11T10:16:53.162Z,32.21
2017-03-11T10:17:53.587Z,32.68
2017-03-11T10:18:53.872Z,32.87
2017-03-11T10:19:53.644Z,33.18
2017-03-11T10:20:53.780Z,32.99
2017-03-11T10:21:53.313Z,31.44
2017-03-11T10:22:53.732Z,32.51
2017-03-11T10:23:53.614Z,32.7
2017-03-11T10:24:53.391Z,32.79
2017-03-11T10:25:53.418Z,32.89
2017-03-11T10:26:53.446Z,31.63
2017-03-11T10:27:53.478Z,31.25
2017-03-11T10:28:54.154Z,29.9
2017-03-11T10:29:53.936Z,31.15
2017-03-11T10:30:53.951Z,32.21
2017-03-11T10:31:53.986Z,31.73
2017-03-11T10:32:54.010Z,30.57
2017-03-11T10:33:54.039Z,30.38
2017-03-11T10:34:54.071Z,30.76
2017-03-11T10:35:54.095Z,31.25
2017-03-11T10:36:54.121Z,30.75
2017-03-11T10:37:54.154Z,31.04
2017-03-11T10:38:54.183Z,30.46
2017-03-11T10:39:53.816Z,31.23
2017-03-11T10:40:54.245Z,31.23
2017-03-11T10:41:54.265Z,29.59
2017-03-11T10:42:54.294Z,29.49
2017-03-11T10:43:54.326Z,29.39
2017-03-11T10:44:54.356Z,30.55
2017-03-11T10:45:54.380Z,29.97
2017-03-11T10:46:54.021Z,30.75
2017-03-11T10:47:54.038Z,31.89
2017-03-11T10:48:54.076Z,32.67
2017-03-11T10:49:54.096Z,33.25
2017-03-11T10:50:54.519Z,34.41
2017-03-11T10:51:54.161Z,33.83
2017-03-11T10:52:54.586Z,34.23
2017-03-11T10:53:54.603Z,33.34
2017-03-11T10:54:54.635Z,32.38
2017-03-11T10:55:54.676Z,32.97
2017-03-11T10:56:54.705Z,33.44
2017-03-11T10:57:54.722Z,33.54
2017-03-11T10:58:54.356Z,34.5
2017-03-11T10:59:54.384Z,34.02
2017-03-11T11:00:54.803Z,35.18
2017-03-11T11:01:54.453Z,35.08
2017-03-11T11:02:54.466Z,34.79
2017-03-11T11:03:54.909Z,34.52
2017-03-11T11:04:54.917Z,35.37
2017-03-11T11:05:54.944Z,35.37
2017-03-11T11:06:54.981Z,34.21
2017-03-11T11:07:55.011Z,35.28
2017-03-11T11:08:55.026Z,34.71
2017-03-11T11:09:54.671Z,35.97
2017-03-11T11:10:55.088Z,36.16
2017-03-11T11:11:55.118Z,34.33
2017-03-11T11:12:55.147Z,34.23
2017-03-11T11:13:55.172Z,33.55
2017-03-11T11:14:55.199Z,35
2017-03-11T11:15:55.239Z,35
2017-03-11T11:16:54.901Z,35.2
2017-03-11T11:17:55.292Z,35.1
2017-03-11T11:18:55.317Z,34.33
2017-03-11T11:19:54.946Z,34.33
2017-03-11T11:20:55.381Z,35
2017-03-11T11:21:55.425Z,34.33
2017-03-11T11:22:55.037Z,34.81
2017-03-11T11:23:55.473Z,35.29
2017-03-11T11:24:55.502Z,35.88
2017-03-11T11:25:55.528Z,36.07
2017-03-11T11:26:55.149Z,36.26
2017-03-11T11:27:55.593Z,35.2
2017-03-11T11:28:55.632Z,35.58
2017-03-11T11:29:55.627Z,35.68
2017-03-11T11:30:55.656Z,33.94
2017-03-11T11:31:55.917Z,34.42
2017-03-11T11:32:55.324Z,34.34
2017-03-11T11:33:55.345Z,35.12
2017-03-11T11:34:55.779Z,35.21
2017-03-11T11:35:55.412Z,34.44
2017-03-11T11:36:55.436Z,34.44
2017-03-11T11:37:55.858Z,34.54
2017-03-11T11:38:55.714Z,34.73
2017-03-11T11:39:55.918Z,35.02
2017-03-11T11:40:55.955Z,34.44
2017-03-11T11:41:55.989Z,34.83
2017-03-11T11:42:56.429Z,34.54
2017-03-11T11:43:56.030Z,34.92
2017-03-11T11:44:56.066Z,35.23
2017-03-11T11:45:56.091Z,34.94
2017-03-11T11:46:56.128Z,35.91
2017-03-11T11:47:56.148Z,36.88
2017-03-11T11:48:56.190Z,37.36
2017-03-11T11:49:56.474Z,37.46
2017-03-11T11:50:56.239Z,35.91
2017-03-11T11:51:56.299Z,36.58
2017-03-11T11:52:56.537Z,36.58
2017-03-11T11:54:56.505Z,36.12
2017-03-11T11:55:56.379Z,35.72
2017-03-11T11:56:56.025Z,35.25
2017-03-11T11:57:56.440Z,35.25
2017-03-11T11:58:56.074Z,35.05
2017-03-11T11:59:56.371Z,35.05
2017-03-11T12:00:56.134Z,35.15
2017-03-11T12:01:56.563Z,35.35
2017-03-11T12:02:56.199Z,34.77
2017-03-11T12:03:56.629Z,34.59
2017-03-11T12:04:56.746Z,33.22
2017-03-11T12:05:56.683Z,32.94
2017-03-11T12:06:56.307Z,32.65
2017-03-11T12:07:56.744Z,32.36
2017-03-11T12:08:56.761Z,32.28
2017-03-11T12:09:56.554Z,31.02
2017-03-11T12:10:56.823Z,30.54
2017-03-11T12:11:56.849Z,29.66
2017-03-11T12:12:56.515Z,30.44
2017-03-11T12:13:56.921Z,30.55
2017-03-11T12:14:57.194Z,30.74
2017-03-11T12:15:56.570Z,31.13
2017-03-11T12:16:57.227Z,31.91
2017-03-11T12:17:56.636Z,32.7
2017-03-11T12:18:56.671Z,32.68
2017-03-11T12:19:56.845Z,32.02
2017-03-11T12:20:57.124Z,30.66
2017-03-11T12:21:57.194Z,31.05
2017-03-11T12:22:57.192Z,30.66
2017-03-11T12:23:56.813Z,30.47
2017-03-11T12:24:57.493Z,30.38
2017-03-11T12:25:57.275Z,30.19
2017-03-11T12:26:56.907Z,30
2017-03-11T12:27:57.356Z,29.8
2017-03-11T12:28:57.369Z,30.48
2017-03-11T12:29:57.867Z,30.38
2017-03-11T12:30:57.425Z,28.34
2017-03-11T12:31:57.450Z,28.05
2017-03-11T12:32:57.092Z,28.55
2017-03-11T12:33:57.516Z,27.78
2017-03-11T12:34:57.696Z,26.9
2017-03-11T12:35:57.186Z,27.19
2017-03-11T12:36:57.610Z,27.68
2017-03-11T12:37:57.647Z,27.58
2017-03-11T12:38:57.699Z,27.48
2017-03-11T12:39:57.957Z,27.87
2017-03-11T12:40:57.734Z,27.48
2017-03-11T12:41:57.756Z,26.51
2017-03-11T12:42:57.804Z,27.1
2017-03-11T12:43:57.830Z,27.48
2017-03-11T12:44:57.708Z,27.29
2017-03-11T12:45:57.490Z,27.68
2017-03-11T12:46:57.914Z,27.87
2017-03-11T12:47:57.951Z,27.29
2017-03-11T12:48:57.587Z,27.39
2017-03-11T12:49:58.125Z,27.78
2017-03-11T12:50:58.042Z,27.58
2017-03-11T12:51:58.086Z,27.86
2017-03-11T12:52:58.329Z,27.1
2017-03-11T12:53:58.136Z,27.19
2017-03-11T12:54:58.419Z,27.29
2017-03-11T12:55:57.798Z,26.71